Time;durP1;ratioP1;P1;durP2;ratioP2;P2;SDS_P1;SDS_P2;PMS_P1;PMS_P2;Temp;Humidity;BMP_temperature;BMP_pressure;BME280_temperature;BME280_humidity;BME280_pressure;Samples;Min_cycle;Max_cycle;Signal;HPM_P1;HPM_P2
2023/04/17 00:02:24;;;;;;;48.90;33.70;;;;;;;;;;5022832;28;20446;-82
2023/04/17 00:04:51;;;;;;;43.13;31.80;;;;;;;;;;5039142;28;20423;-83
2023/04/17 00:07:21;;;;;;;51.57;34.53;;;;;;;;;;5037109;28;20484;-83
2023/04/17 00:09:48;;;;;;;42.17;33.17;;;;;;;;;;5030791;28;20443;-84
2023/04/17 00:12:14;;;;;;;45.93;32.57;;;;;;;;;;5032641;28;20473;-84
2023/04/17 00:14:40;;;;;;;45.17;35.03;;;;;;;;;;5033520;28;20522;-83
2023/04/17 00:17:06;;;;;;;51.10;30.97;;;;;;;;;;5031259;28;20467;-83
2023/04/17 00:19:32;;;;;;;43.20;32.00;;;;;;;;;;5029702;28;20443;-83
2023/04/17 00:21:58;;;;;;;47.47;33.20;;;;;;;;;;5035466;28;20451;-82
2023/04/17 00:24:24;;;;;;;45.43;34.10;;;;;;;;;;5037182;28;20457;-83
2023/04/17 00:26:50;;;;;;;47.67;34.57;;;;;;;;;;5030092;28;20478;-83
2023/04/17 00:29:16;;;;;;;53.53;34.80;;;;;;;;;;5035731;28;20426;-83
2023/04/17 00:31:42;;;;;;;42.67;32.03;;;;;;;;;;5028177;28;20460;-83
2023/04/17 00:34:08;;;;;;;45.40;32.40;;;;;;;;;;5024043;28;20450;-83
2023/04/17 00:36:34;;;;;;;47.90;34.60;;;;;;;;;;5025268;28;20447;-83
2023/04/17 00:39:00;;;;;;;45.57;31.13;;;;;;;;;;5027078;28;21926;-83
2023/04/17 00:41:26;;;;;;;42.00;31.83;;;;;;;;;;5026407;28;20450;-83
2023/04/17 00:43:52;;;;;;;40.90;33.07;;;;;;;;;;5028788;28;20810;-82
2023/04/17 00:46:18;;;;;;;44.03;33.07;;;;;;;;;;5029297;28;20472;-83
2023/04/17 00:48:45;;;;;;;43.93;31.97;;;;;;;;;;5030862;28;20469;-83
2023/04/17 00:51:11;;;;;;;40.13;30.97;;;;;;;;;;5029781;28;20450;-82
2023/04/17 00:53:37;;;;;;;39.87;30.90;;;;;;;;;;5029751;28;20442;-83
2023/04/17 00:56:05;;;;;;;42.40;29.23;;;;;;;;;;5025698;28;20450;-83
2023/04/17 00:58:31;;;;;;;39.40;29.83;;;;;;;;;;5021289;28;20442;-83
2023/04/17 01:00:57;;;;;;;39.90;30.10;;;;;;;;;;5022803;28;20442;-83
2023/04/17 01:03:23;;;;;;;41.20;32.03;;;;;;;;;;5027732;28;20763;-83
2023/04/17 01:05:50;;;;;;;50.33;31.67;;;;;;;;;;5029533;28;20859;-83
2023/04/17 01:08:16;;;;;;;40.73;28.67;;;;;;;;;;5022687;28;20553;-83
2023/04/17 01:10:42;;;;;;;38.63;29.60;;;;;;;;;;5026079;28;20435;-83
2023/04/17 01:13:09;;;;;;;39.10;29.53;;;;;;;;;;5025708;28;20437;-83
2023/04/17 01:15:35;;;;;;;40.93;30.23;;;;;;;;;;5023273;28;20962;-83
2023/04/17 01:18:02;;;;;;;41.37;29.40;;;;;;;;;;5020771;28;20476;-83
2023/04/17 01:20:31;;;;;;;39.30;28.87;;;;;;;;;;5023020;28;20518;-83
2023/04/17 01:22:58;;;;;;;35.10;28.77;;;;;;;;;;5016177;28;20455;-84
2023/04/17 01:25:24;;;;;;;39.97;29.00;;;;;;;;;;5047953;28;20509;-83
2023/04/17 01:27:50;;;;;;;40.80;29.57;;;;;;;;;;5040407;28;20474;-83
2023/04/17 01:30:16;;;;;;;34.80;27.27;;;;;;;;;;5034235;28;20416;-83
2023/04/17 01:32:42;;;;;;;40.80;29.47;;;;;;;;;;5029623;28;20441;-83
2023/04/17 01:35:09;;;;;;;42.53;29.40;;;;;;;;;;5022067;28;20406;-83
2023/04/17 01:37:35;;;;;;;34.13;26.57;;;;;;;;;;5021679;28;20459;-82
2023/04/17 01:40:01;;;;;;;35.73;28.30;;;;;;;;;;5026216;28;20965;-82
2023/04/17 01:42:28;;;;;;;38.40;28.90;;;;;;;;;;5023180;28;20438;-83
2023/04/17 01:44:54;;;;;;;43.30;29.57;;;;;;;;;;5023188;28;20433;-82
2023/04/17 01:47:20;;;;;;;35.77;27.80;;;;;;;;;;5017660;28;20465;-83
2023/04/17 01:49:46;;;;;;;49.77;29.73;;;;;;;;;;5023538;28;20497;-83
2023/04/17 01:52:12;;;;;;;40.80;29.87;;;;;;;;;;5021850;28;20446;-83
2023/04/17 01:54:38;;;;;;;40.43;29.70;;;;;;;;;;5025254;28;20415;-83
2023/04/17 01:57:04;;;;;;;38.60;28.20;;;;;;;;;;5024053;28;22311;-83
2023/04/17 01:59:30;;;;;;;37.83;29.30;;;;;;;;;;5022945;28;20473;-83
2023/04/17 02:01:56;;;;;;;41.37;28.83;;;;;;;;;;5022337;28;20447;-83
2023/04/17 02:04:22;;;;;;;39.70;29.97;;;;;;;;;;5021355;28;20450;-83
2023/04/17 02:06:48;;;;;;;38.03;26.40;;;;;;;;;;5020952;28;20470;-83
2023/04/17 02:09:14;;;;;;;38.07;28.87;;;;;;;;;;5020243;28;20576;-83
2023/04/17 02:11:40;;;;;;;36.83;29.33;;;;;;;;;;5021423;28;20937;-83
2023/04/17 02:14:06;;;;;;;40.37;28.60;;;;;;;;;;5024274;28;20446;-83
2023/04/17 02:16:32;;;;;;;46.03;31.33;;;;;;;;;;5021675;28;20435;-84
2023/04/17 02:18:58;;;;;;;42.00;28.47;;;;;;;;;;5025206;28;20850;-83
2023/04/17 02:21:26;;;;;;;37.33;28.70;;;;;;;;;;5027959;28;20795;-84
2023/04/17 02:23:52;;;;;;;40.67;30.07;;;;;;;;;;5031938;28;20484;-84
2023/04/17 02:26:18;;;;;;;43.13;30.13;;;;;;;;;;5040079;28;20436;-84
2023/04/17 02:28:44;;;;;;;42.83;29.83;;;;;;;;;;5040515;28;20486;-84
2023/04/17 02:31:11;;;;;;;44.67;31.13;;;;;;;;;;5039135;28;20506;-83
2023/04/17 02:33:37;;;;;;;45.27;30.30;;;;;;;;;;5033354;28;20513;-84
2023/04/17 02:36:03;;;;;;;39.17;30.63;;;;;;;;;;5039619;28;20447;-83
2023/04/17 02:38:30;;;;;;;42.03;30.53;;;;;;;;;;5041413;28;20474;-84
2023/04/17 02:40:56;;;;;;;42.80;31.17;;;;;;;;;;5037710;28;20451;-84
2023/04/17 02:43:22;;;;;;;38.40;27.93;;;;;;;;;;5047298;28;20423;-84
2023/04/17 02:45:48;;;;;;;44.90;30.93;;;;;;;;;;5041451;28;20472;-84
2023/04/17 02:48:15;;;;;;;41.77;30.07;;;;;;;;;;5049048;28;20467;-84
2023/04/17 02:50:41;;;;;;;37.70;29.80;;;;;;;;;;5046342;28;20471;-84
2023/04/17 02:53:07;;;;;;;34.20;28.17;;;;;;;;;;5046601;28;20500;-83
2023/04/17 02:55:33;;;;;;;45.30;29.53;;;;;;;;;;5041307;28;20422;-84
2023/04/17 02:57:59;;;;;;;39.47;29.00;;;;;;;;;;5044159;28;20434;-82
2023/04/17 03:00:26;;;;;;;41.20;26.40;;;;;;;;;;5046491;28;20533;-84
2023/04/17 03:02:52;;;;;;;36.50;29.23;;;;;;;;;;5040949;28;20443;-84
2023/04/17 03:05:19;;;;;;;32.00;27.33;;;;;;;;;;5045381;28;20438;-84
2023/04/17 03:07:45;;;;;;;33.27;26.80;;;;;;;;;;5036857;28;20470;-83
2023/04/17 03:10:12;;;;;;;33.50;24.90;;;;;;;;;;5033782;28;20641;-84
2023/04/17 03:12:39;;;;;;;29.47;24.67;;;;;;;;;;5040156;28;20444;-84
2023/04/17 03:15:06;;;;;;;34.20;23.67;;;;;;;;;;5034501;28;21041;-83
2023/04/17 03:17:32;;;;;;;39.40;26.13;;;;;;;;;;5034634;28;20454;-83
2023/04/17 03:19:58;;;;;;;31.80;24.10;;;;;;;;;;5028433;28;20909;-83
2023/04/17 03:22:24;;;;;;;28.60;24.07;;;;;;;;;;5030804;28;20432;-84
2023/04/17 03:24:50;;;;;;;31.80;24.90;;;;;;;;;;5046747;28;20494;-84
2023/04/17 03:27:23;;;;;;;28.43;23.77;;;;;;;;;;5050668;28;20482;-83
2023/04/17 03:29:49;;;;;;;27.70;22.70;;;;;;;;;;5042421;28;20497;-83
2023/04/17 03:32:15;;;;;;;30.23;23.10;;;;;;;;;;5048472;28;20446;-84
2023/04/17 03:53:57;;;;;;;36.80;25.50;;;;;;;;;;5702453;23;20482;-84
2023/04/17 03:56:24;;;;;;;27.37;22.80;;;;;;;;;;4962424;28;20517;-83
2023/04/17 03:58:50;;;;;;;29.70;24.17;;;;;;;;;;4963538;28;20449;-83
2023/04/17 04:01:16;;;;;;;32.63;24.43;;;;;;;;;;4963659;29;20453;-84
2023/04/17 04:03:42;;;;;;;30.30;24.17;;;;;;;;;;4962666;28;20469;-83
2023/04/17 04:06:08;;;;;;;31.10;25.30;;;;;;;;;;4962486;28;20430;-83
2023/04/17 04:08:34;;;;;;;30.20;24.87;;;;;;;;;;4957805;28;20466;-83
2023/04/17 04:11:02;;;;;;;32.53;25.30;;;;;;;;;;4965185;29;20450;-83
2023/04/17 04:13:28;;;;;;;34.73;25.07;;;;;;;;;;4954919;28;20453;-83
2023/04/17 04:15:54;;;;;;;34.80;24.30;;;;;;;;;;4958707;28;20595;-83
2023/04/17 04:18:20;;;;;;;34.33;26.17;;;;;;;;;;4949611;28;20441;-84
2023/04/17 04:20:46;;;;;;;35.80;26.50;;;;;;;;;;4952310;28;20422;-83
2023/04/17 04:23:12;;;;;;;30.27;24.43;;;;;;;;;;4954215;29;20680;-83
2023/04/17 04:25:40;;;;;;;29.17;24.23;;;;;;;;;;4957944;28;20474;-83
2023/04/17 04:28:06;;;;;;;31.13;25.30;;;;;;;;;;4953837;28;20875;-83
2023/04/17 04:30:34;;;;;;;41.80;29.43;;;;;;;;;;4956520;29;20454;-81
2023/04/17 04:33:01;;;;;;;34.20;25.07;;;;;;;;;;4949335;29;20459;-82
2023/04/17 04:35:29;;;;;;;36.37;25.70;;;;;;;;;;4954774;28;20984;-84
2023/04/17 04:38:00;;;;;;;33.17;25.47;;;;;;;;;;4953303;28;20815;-83
2023/04/17 04:40:26;;;;;;;37.60;25.47;;;;;;;;;;4956247;28;20485;-83
2023/04/17 04:42:52;;;;;;;34.60;25.63;;;;;;;;;;4959371;28;20485;-81
2023/04/17 04:45:18;;;;;;;27.87;23.30;;;;;;;;;;4955196;28;20669;-83
2023/04/17 04:47:44;;;;;;;36.50;24.37;;;;;;;;;;4954624;29;20501;-83
2023/04/17 04:50:10;;;;;;;29.13;23.40;;;;;;;;;;4948463;28;20431;-84
2023/04/17 04:52:36;;;;;;;35.60;23.63;;;;;;;;;;4964718;28;20429;-84
2023/04/17 04:55:05;;;;;;;32.07;23.63;;;;;;;;;;4949587;28;20466;-82
2023/04/17 04:57:31;;;;;;;31.40;24.17;;;;;;;;;;4954517;28;20446;-83
2023/04/17 04:59:57;;;;;;;27.10;21.97;;;;;;;;;;4955114;28;20949;-84
2023/04/17 05:02:23;;;;;;;30.67;23.70;;;;;;;;;;4960253;28;20929;-82
2023/04/17 05:04:50;;;;;;;28.07;22.20;;;;;;;;;;4958574;28;20454;-82
2023/04/17 05:07:16;;;;;;;32.67;23.40;;;;;;;;;;4960892;28;20462;-84
2023/04/17 05:09:42;;;;;;;29.20;23.77;;;;;;;;;;4961560;28;20473;-84
2023/04/17 05:12:08;;;;;;;33.93;25.07;;;;;;;;;;4962451;28;20451;-83
2023/04/17 05:14:34;;;;;;;38.73;25.40;;;;;;;;;;4961912;28;20477;-83
2023/04/17 05:17:01;;;;;;;32.87;25.20;;;;;;;;;;4958993;28;20439;-82
2023/04/17 05:19:29;;;;;;;32.00;25.30;;;;;;;;;;4954563;28;20448;-83
2023/04/17 05:21:55;;;;;;;30.10;24.30;;;;;;;;;;4968325;28;20474;-84
2023/04/17 05:24:21;;;;;;;40.47;24.13;;;;;;;;;;4974428;28;20526;-82
2023/04/17 05:26:48;;;;;;;33.37;25.40;;;;;;;;;;4970843;28;20462;-84
2023/04/17 05:29:14;;;;;;;32.67;25.13;;;;;;;;;;4963771;28;20431;-81
2023/04/17 05:31:40;;;;;;;33.97;24.87;;;;;;;;;;4966400;29;20422;-83
2023/04/17 05:34:06;;;;;;;34.73;25.63;;;;;;;;;;4964603;28;20444;-84
2023/04/17 05:36:32;;;;;;;31.63;25.60;;;;;;;;;;4965967;28;20427;-84
2023/04/17 05:38:58;;;;;;;34.90;26.37;;;;;;;;;;4964050;28;20520;-86
2023/04/17 05:41:26;;;;;;;36.27;26.83;;;;;;;;;;4963264;28;20425;-82
2023/04/17 05:43:52;;;;;;;36.13;25.10;;;;;;;;;;4955383;28;20462;-84
2023/04/17 05:46:19;;;;;;;37.73;28.20;;;;;;;;;;4961555;28;20466;-84
2023/04/17 05:48:45;;;;;;;39.77;29.03;;;;;;;;;;4958580;28;20509;-80
2023/04/17 05:51:14;;;;;;;36.63;27.83;;;;;;;;;;4960341;29;20443;-84
2023/04/17 05:53:50;;;;;;;;;;;;;;;;;;;;;
2023/04/17 05:56:16;;;;;;;37.60;28.73;;;;;;;;;;4971028;28;20446;-80
2023/04/17 05:58:45;;;;;;;36.13;26.70;;;;;;;;;;4947082;29;20463;-84
2023/04/17 06:01:11;;;;;;;36.53;26.90;;;;;;;;;;4964028;29;20422;-83
2023/04/17 06:03:37;;;;;;;36.13;25.73;;;;;;;;;;4956710;28;20484;-83
2023/04/17 06:06:04;;;;;;;35.73;25.03;;;;;;;;;;4955263;29;20515;-82
2023/04/17 06:08:30;;;;;;;33.07;25.80;;;;;;;;;;4960636;28;20473;-82
2023/04/17 06:10:56;;;;;;;29.63;25.13;;;;;;;;;;4975314;28;20441;-84
2023/04/17 06:13:23;;;;;;;51.23;26.30;;;;;;;;;;4953688;28;20449;-83
2023/04/17 06:15:50;;;;;;;29.37;24.30;;;;;;;;;;4954127;28;20477;-84
2023/04/17 06:18:16;;;;;;;33.20;22.80;;;;;;;;;;4946646;29;20530;-84
2023/04/17 06:20:43;;;;;;;26.07;21.77;;;;;;;;;;4961998;29;20437;-82
2023/04/17 06:23:09;;;;;;;25.93;22.10;;;;;;;;;;4942976;29;20482;-83
2023/04/17 06:25:35;;;;;;;29.07;23.10;;;;;;;;;;4965389;28;20437;-85
2023/04/17 06:28:01;;;;;;;31.47;23.47;;;;;;;;;;4961103;28;20490;-83
2023/04/17 06:30:27;;;;;;;32.17;23.50;;;;;;;;;;4968876;28;20649;-84
2023/04/17 06:32:53;;;;;;;28.83;24.23;;;;;;;;;;4952107;28;20426;-82
2023/04/17 06:35:19;;;;;;;27.07;21.73;;;;;;;;;;4966814;29;20456;-83
2023/04/17 06:37:46;;;;;;;31.63;23.57;;;;;;;;;;4968998;28;20462;-83
2023/04/17 06:40:12;;;;;;;27.00;23.30;;;;;;;;;;4968960;28;20438;-84
2023/04/17 06:42:38;;;;;;;26.20;23.13;;;;;;;;;;4972409;28;20470;-82
2023/04/17 06:45:04;;;;;;;28.90;22.47;;;;;;;;;;4969112;29;20442;-84
2023/04/17 06:47:30;;;;;;;30.00;22.43;;;;;;;;;;4966608;28;20528;-80
2023/04/17 06:49:58;;;;;;;32.40;24.07;;;;;;;;;;4972016;28;20445;-84
2023/04/17 06:52:25;;;;;;;27.13;23.20;;;;;;;;;;4966413;28;20588;-84
2023/04/17 06:54:51;;;;;;;25.87;21.50;;;;;;;;;;4955559;29;20491;-86
2023/04/17 06:57:17;;;;;;;25.63;22.47;;;;;;;;;;4956317;28;20438;-85
2023/04/17 06:59:43;;;;;;;25.57;22.40;;;;;;;;;;4966326;29;20429;-84
2023/04/17 07:02:10;;;;;;;30.50;21.50;;;;;;;;;;4960835;29;20497;-85
2023/04/17 07:04:36;;;;;;;26.63;22.73;;;;;;;;;;4969309;29;20445;-83
2023/04/17 07:07:02;;;;;;;27.60;22.70;;;;;;;;;;4966649;29;20564;-84
2023/04/17 07:09:28;;;;;;;26.50;22.00;;;;;;;;;;4960993;29;20443;-80
2023/04/17 07:11:54;;;;;;;27.10;22.10;;;;;;;;;;4960713;28;20407;-82
2023/04/17 07:14:21;;;;;;;31.80;22.83;;;;;;;;;;4967822;29;20517;-84
2023/04/17 07:16:47;;;;;;;35.27;29.37;;;;;;;;;;4958232;28;20454;-83
2023/04/17 07:19:14;;;;;;;38.70;29.03;;;;;;;;;;4952674;28;20462;-82
2023/04/17 07:21:40;;;;;;;28.20;23.67;;;;;;;;;;4961909;29;20426;-80
2023/04/17 07:24:06;;;;;;;25.97;23.17;;;;;;;;;;4971981;28;20469;-83
2023/04/17 07:26:32;;;;;;;27.90;24.53;;;;;;;;;;4972236;28;20437;-82
2023/04/17 07:28:58;;;;;;;29.20;23.77;;;;;;;;;;4958990;28;20438;-84
2023/04/17 07:31:27;;;;;;;31.40;23.70;;;;;;;;;;4952964;29;20520;-83
2023/04/17 07:33:53;;;;;;;29.03;24.43;;;;;;;;;;4960829;28;20426;-83
2023/04/17 07:36:19;;;;;;;29.23;24.03;;;;;;;;;;4961657;28;20437;-81
2023/04/17 07:38:45;;;;;;;30.47;24.80;;;;;;;;;;4965469;28;20442;-81
2023/04/17 07:41:11;;;;;;;25.83;22.60;;;;;;;;;;4965610;29;20438;-83
2023/04/17 07:43:37;;;;;;;32.20;25.17;;;;;;;;;;4951669;28;20466;-83
2023/04/17 07:46:04;;;;;;;29.10;23.63;;;;;;;;;;4957079;29;20533;-83
2023/04/17 07:48:30;;;;;;;26.00;23.20;;;;;;;;;;4964822;28;20841;-83
2023/04/17 07:50:59;;;;;;;31.93;23.90;;;;;;;;;;4939936;29;20451;-84
2023/04/17 07:53:27;;;;;;;33.13;26.33;;;;;;;;;;4946831;29;20475;-82
2023/04/17 07:55:53;;;;;;;29.40;24.77;;;;;;;;;;4948769;28;20514;-82
2023/04/17 07:58:19;;;;;;;36.97;26.83;;;;;;;;;;4947274;29;20435;-82
2023/04/17 08:00:46;;;;;;;31.47;27.37;;;;;;;;;;4947509;28;20846;-82
2023/04/17 08:03:13;;;;;;;34.63;25.80;;;;;;;;;;4947629;28;20451;-83
2023/04/17 08:05:39;;;;;;;34.33;27.90;;;;;;;;;;4949368;28;20462;-82
2023/04/17 08:08:05;;;;;;;31.40;24.87;;;;;;;;;;4952248;28;20553;-82
2023/04/17 08:10:31;;;;;;;32.53;25.47;;;;;;;;;;4939695;29;20430;-79
2023/04/17 08:12:57;;;;;;;34.80;25.43;;;;;;;;;;4943253;29;20473;-83
2023/04/17 08:15:23;;;;;;;30.80;24.47;;;;;;;;;;4928426;29;20437;-81
2023/04/17 08:17:49;;;;;;;33.60;25.80;;;;;;;;;;4943956;28;20513;-83
2023/04/17 08:20:17;;;;;;;31.97;25.70;;;;;;;;;;4955320;28;20634;-81
2023/04/17 08:22:45;;;;;;;30.93;26.87;;;;;;;;;;4929938;29;20458;-81
2023/04/17 08:25:11;;;;;;;38.07;27.50;;;;;;;;;;4951902;28;20437;-82
2023/04/17 08:27:39;;;;;;;31.73;25.60;;;;;;;;;;4948289;28;20528;-81
2023/04/17 08:30:05;;;;;;;29.67;25.03;;;;;;;;;;4953651;29;20447;-82
2023/04/17 08:32:42;;;;;;;32.40;27.60;;;;;;;;;;4941659;28;20535;-80
2023/04/17 08:35:10;;;;;;;29.50;25.67;;;;;;;;;;4949928;29;20443;-83
2023/04/17 08:37:36;;;;;;;33.27;26.57;;;;;;;;;;4952478;28;20610;-83
2023/04/17 08:40:05;;;;;;;29.33;24.40;;;;;;;;;;4961786;28;20442;-82
2023/04/17 08:42:34;;;;;;;28.70;23.17;;;;;;;;;;4955144;29;20532;-85
2023/04/17 08:45:03;;;;;;;29.30;25.57;;;;;;;;;;4966737;28;20446;-81
2023/04/17 08:47:29;;;;;;;35.13;25.53;;;;;;;;;;4944297;29;20496;-84
2023/04/17 08:49:56;;;;;;;46.47;32.90;;;;;;;;;;4967285;28;20426;-83
2023/04/17 08:52:23;;;;;;;26.93;24.03;;;;;;;;;;4954296;28;20460;-83
2023/04/17 08:54:49;;;;;;;27.30;24.40;;;;;;;;;;4955535;28;20466;-82
2023/04/17 08:57:15;;;;;;;27.30;22.67;;;;;;;;;;4952056;28;20934;-83
2023/04/17 08:59:41;;;;;;;30.70;25.47;;;;;;;;;;4952367;29;20436;-83
2023/04/17 09:02:08;;;;;;;30.67;24.70;;;;;;;;;;4945604;29;20446;-84
2023/04/17 09:04:41;;;;;;;31.03;25.80;;;;;;;;;;4947422;28;20720;-83
2023/04/17 09:07:08;;;;;;;31.23;26.50;;;;;;;;;;4946826;28;20521;-82
2023/04/17 09:09:46;;;;;;;25.00;22.00;;;;;;;;;;4943672;28;20419;-83
2023/04/17 09:12:12;;;;;;;27.13;23.63;;;;;;;;;;4945457;28;20434;-82
2023/04/17 09:14:38;;;;;;;25.60;21.50;;;;;;;;;;4947583;28;20814;-80
2023/04/17 09:17:04;;;;;;;24.30;21.80;;;;;;;;;;4952933;28;20438;-80
2023/04/17 09:19:30;;;;;;;24.60;22.00;;;;;;;;;;4949679;28;20414;-81
2023/04/17 09:21:56;;;;;;;23.97;21.77;;;;;;;;;;4950918;28;20445;-81
2023/04/17 09:24:33;;;;;;;25.23;22.60;;;;;;;;;;4956178;28;20406;-83
2023/04/17 09:27:22;;;;;;;25.07;22.47;;;;;;;;;;4961053;28;20442;-82
2023/04/17 09:30:05;;;;;;;24.10;21.60;;;;;;;;;;4969307;28;20447;-78
2023/04/17 09:32:31;;;;;;;22.70;20.33;;;;;;;;;;4962836;28;20442;-82
2023/04/17 09:34:59;;;;;;;25.00;20.30;;;;;;;;;;4949149;28;20457;-79
2023/04/17 09:37:26;;;;;;;25.83;21.60;;;;;;;;;;4945397;28;20446;-79
2023/04/17 09:39:59;;;;;;;24.23;21.37;;;;;;;;;;4942342;29;20780;-78
2023/04/17 09:42:25;;;;;;;22.77;20.43;;;;;;;;;;4942762;29;21174;-81
2023/04/17 09:44:51;;;;;;;24.50;20.30;;;;;;;;;;4949606;28;20453;-83
2023/04/17 09:47:17;;;;;;;22.50;20.37;;;;;;;;;;4951897;28;20462;-84
2023/04/17 09:49:48;;;;;;;22.67;20.33;;;;;;;;;;4945075;29;20466;-78
2023/04/17 09:52:15;;;;;;;23.40;21.00;;;;;;;;;;4944960;28;20466;-81
2023/04/17 09:54:42;;;;;;;21.57;19.47;;;;;;;;;;4942513;28;20458;-80
2023/04/17 09:57:09;;;;;;;19.20;17.27;;;;;;;;;;4938710;28;20795;-79
2023/04/17 09:59:38;;;;;;;19.10;16.97;;;;;;;;;;4942685;28;20430;-79
2023/04/17 10:02:08;;;;;;;19.60;17.07;;;;;;;;;;4940694;28;20497;-80
2023/04/17 10:04:34;;;;;;;18.20;16.70;;;;;;;;;;4947686;28;20528;-80
2023/04/17 10:07:01;;;;;;;18.30;16.50;;;;;;;;;;4944011;29;20481;-79
2023/04/17 10:09:29;;;;;;;18.10;16.33;;;;;;;;;;4937959;28;20450;-84
2023/04/17 10:11:55;;;;;;;18.33;16.60;;;;;;;;;;4949985;29;20446;-83
2023/04/17 10:14:25;;;;;;;17.30;15.53;;;;;;;;;;4956454;28;20513;-83
2023/04/17 10:16:52;;;;;;;16.47;13.70;;;;;;;;;;4943308;28;20440;-83
2023/04/17 10:19:31;;;;;;;20.53;15.53;;;;;;;;;;4947258;28;20456;-82
2023/04/17 10:22:16;;;;;;;15.80;14.50;;;;;;;;;;4939796;29;20533;-82
2023/04/17 10:24:42;;;;;;;14.20;13.00;;;;;;;;;;4946819;29;20471;-81
2023/04/17 10:27:27;;;;;;;15.07;13.67;;;;;;;;;;4940809;28;20693;-83
2023/04/17 10:29:55;;;;;;;15.43;14.03;;;;;;;;;;4941181;28;20468;-82
2023/04/17 10:32:29;;;;;;;15.83;14.30;;;;;;;;;;4933089;28;20443;-82
2023/04/17 10:34:56;;;;;;;13.93;12.50;;;;;;;;;;4935648;28;20514;-81
2023/04/17 10:37:43;;;;;;;14.13;12.83;;;;;;;;;;4941099;28;20459;-82
2023/04/17 10:40:10;;;;;;;14.43;12.93;;;;;;;;;;4937765;29;20438;-83
2023/04/17 10:42:36;;;;;;;13.40;12.10;;;;;;;;;;4950263;28;20452;-81
2023/04/17 10:45:04;;;;;;;13.33;12.03;;;;;;;;;;4937907;29;20457;-71
2023/04/17 10:47:34;;;;;;;14.60;13.23;;;;;;;;;;4938655;29;20497;-80
2023/04/17 10:50:04;;;;;;;13.33;12.17;;;;;;;;;;4943628;29;20524;-79
2023/04/17 10:52:33;;;;;;;12.87;11.70;;;;;;;;;;4935419;28;20918;-80
2023/04/17 10:55:06;;;;;;;12.27;11.17;;;;;;;;;;4942813;29;20454;-76
2023/04/17 10:57:51;;;;;;;11.57;10.77;;;;;;;;;;4934720;28;20472;-83
2023/04/17 11:00:17;;;;;;;12.63;11.23;;;;;;;;;;4943284;28;20406;-84
2023/04/17 11:02:49;;;;;;;12.10;11.20;;;;;;;;;;4946535;28;20861;-84
2023/04/17 11:05:17;;;;;;;14.47;13.10;;;;;;;;;;4934116;28;20469;-85
2023/04/17 11:07:43;;;;;;;11.23;10.53;;;;;;;;;;4949668;28;20480;-82
2023/04/17 11:10:09;;;;;;;11.23;10.43;;;;;;;;;;4954418;28;20406;-82
2023/04/17 11:12:38;;;;;;;10.53;9.63;;;;;;;;;;4955552;29;20445;-83
2023/04/17 11:15:08;;;;;;;11.80;11.10;;;;;;;;;;4950053;28;20926;-85
2023/04/17 11:17:39;;;;;;;9.73;9.03;;;;;;;;;;4954643;28;20442;-85
2023/04/17 11:20:08;;;;;;;8.97;8.20;;;;;;;;;;4954170;28;20481;-85
2023/04/17 11:22:34;;;;;;;8.83;8.33;;;;;;;;;;4948897;28;20585;-88
2023/04/17 11:25:00;;;;;;;10.17;9.47;;;;;;;;;;4949185;28;20471;-82
2023/04/17 11:27:27;;;;;;;9.60;9.00;;;;;;;;;;4951380;28;20632;-80
2023/04/17 11:29:53;;;;;;;9.70;8.73;;;;;;;;;;4945971;29;20453;-81
2023/04/17 11:32:19;;;;;;;9.73;8.73;;;;;;;;;;4956696;29;20459;-83
2023/04/17 11:34:45;;;;;;;9.37;8.80;;;;;;;;;;4966399;28;20433;-84
2023/04/17 11:37:13;;;;;;;9.50;8.90;;;;;;;;;;4966971;28;20477;-83
2023/04/17 11:39:41;;;;;;;9.03;8.43;;;;;;;;;;4949985;29;20419;-83
2023/04/17 11:42:08;;;;;;;9.73;9.10;;;;;;;;;;4943464;29;20991;-83
2023/04/17 11:44:34;;;;;;;11.03;9.07;;;;;;;;;;4952693;28;20423;-84
2023/04/17 11:47:01;;;;;;;8.80;8.30;;;;;;;;;;4955825;28;20561;-83
2023/04/17 11:49:28;;;;;;;10.80;9.87;;;;;;;;;;4955486;28;20765;-80
2023/04/17 11:51:54;;;;;;;11.97;10.80;;;;;;;;;;4950744;28;20427;-82
2023/04/17 11:54:26;;;;;;;10.77;9.60;;;;;;;;;;4960455;28;20565;-83
2023/04/17 11:57:02;;;;;;;9.07;8.47;;;;;;;;;;4968795;29;20722;-81
2023/04/17 11:59:29;;;;;;;10.80;10.00;;;;;;;;;;4961335;29;20867;-84
2023/04/17 12:01:55;;;;;;;10.07;8.63;;;;;;;;;;4946893;28;20518;-84
2023/04/17 12:04:21;;;;;;;10.53;9.77;;;;;;;;;;4961668;28;20438;-85
2023/04/17 12:06:47;;;;;;;11.07;10.27;;;;;;;;;;4961099;28;20457;-84
2023/04/17 12:09:20;;;;;;;9.07;8.47;;;;;;;;;;4950198;28;21002;-85
2023/04/17 12:11:46;;;;;;;10.00;9.47;;;;;;;;;;4966567;28;20425;-84
2023/04/17 12:14:12;;;;;;;9.77;8.80;;;;;;;;;;5141001;23;20435;-79
2023/04/17 12:16:38;;;;;;;9.77;9.17;;;;;;;;;;4987197;28;20433;-84
2023/04/17 12:19:05;;;;;;;9.23;8.70;;;;;;;;;;4985730;28;20428;-84
2023/04/17 12:21:31;;;;;;;11.03;10.07;;;;;;;;;;4989022;28;20429;-83
2023/04/17 12:23:57;;;;;;;9.97;9.07;;;;;;;;;;4967041;28;20432;-84
2023/04/17 12:26:24;;;;;;;9.17;8.30;;;;;;;;;;4987691;28;20565;-84
2023/04/17 12:28:52;;;;;;;10.80;9.70;;;;;;;;;;4987281;28;20468;-83
2023/04/17 12:31:18;;;;;;;12.53;9.73;;;;;;;;;;4980673;28;20453;-83
2023/04/17 12:33:44;;;;;;;9.90;9.30;;;;;;;;;;4986278;28;20433;-83
2023/04/17 12:36:10;;;;;;;10.23;9.50;;;;;;;;;;4983257;28;20574;-82
2023/04/17 12:38:36;;;;;;;9.77;9.00;;;;;;;;;;4971246;28;20452;-84
2023/04/17 12:41:02;;;;;;;9.47;8.70;;;;;;;;;;4986782;28;20441;-83
2023/04/17 12:43:32;;;;;;;10.27;9.43;;;;;;;;;;4989428;28;20437;-84
2023/04/17 12:45:58;;;;;;;10.37;9.70;;;;;;;;;;4989399;28;20429;-84
2023/04/17 12:48:24;;;;;;;12.80;11.80;;;;;;;;;;4989802;28;20496;-83
2023/04/17 12:50:50;;;;;;;11.57;10.77;;;;;;;;;;4975938;28;20797;-83
2023/04/17 12:53:17;;;;;;;12.10;11.20;;;;;;;;;;4952715;28;20433;-82
2023/04/17 12:55:43;;;;;;;12.70;11.70;;;;;;;;;;4968443;28;20692;-83
2023/04/17 12:58:10;;;;;;;11.10;10.40;;;;;;;;;;4966198;28;20583;-81
2023/04/17 13:00:36;;;;;;;11.80;10.80;;;;;;;;;;4970793;28;20441;-83
2023/04/17 13:03:03;;;;;;;11.73;10.80;;;;;;;;;;4982343;28;20437;-82
2023/04/17 13:05:29;;;;;;;12.50;11.40;;;;;;;;;;4970572;28;20469;-79
2023/04/17 13:07:56;;;;;;;11.60;10.60;;;;;;;;;;4979678;28;20500;-82
2023/04/17 13:10:22;;;;;;;12.90;12.00;;;;;;;;;;4961594;28;20457;-83
2023/04/17 13:12:48;;;;;;;11.23;10.23;;;;;;;;;;4960738;28;20457;-83
2023/04/17 13:15:15;;;;;;;12.83;11.80;;;;;;;;;;4966689;28;20922;-83
2023/04/17 13:17:44;;;;;;;12.80;11.80;;;;;;;;;;4973162;28;20442;-83
2023/04/17 13:20:11;;;;;;;12.80;11.80;;;;;;;;;;4964242;28;20456;-83
2023/04/17 13:22:37;;;;;;;13.40;12.50;;;;;;;;;;4966171;28;20433;-83
2023/04/17 13:25:03;;;;;;;13.50;12.47;;;;;;;;;;4963052;28;20522;-82
2023/04/17 13:27:30;;;;;;;13.30;12.20;;;;;;;;;;4962574;28;20579;-83
2023/04/17 13:29:56;;;;;;;13.37;12.00;;;;;;;;;;4967263;28;20448;-82
2023/04/17 13:32:22;;;;;;;12.57;11.57;;;;;;;;;;4968127;28;20441;-82
2023/04/17 13:34:49;;;;;;;12.93;11.73;;;;;;;;;;4986238;28;20449;-84
2023/04/17 13:37:15;;;;;;;12.33;11.20;;;;;;;;;;4983644;28;20457;-81
2023/04/17 13:39:41;;;;;;;12.27;11.27;;;;;;;;;;4978023;28;20421;-82
2023/04/17 13:42:08;;;;;;;12.77;11.30;;;;;;;;;;4963832;28;20481;-82
2023/04/17 13:44:34;;;;;;;11.00;10.27;;;;;;;;;;4966594;28;20446;-82
2023/04/17 13:47:02;;;;;;;11.60;10.60;;;;;;;;;;4953583;28;20485;-81
2023/04/17 13:49:28;;;;;;;12.60;11.60;;;;;;;;;;4968569;28;20686;-83
2023/04/17 13:51:55;;;;;;;12.87;11.97;;;;;;;;;;4964647;28;20545;-82
2023/04/17 13:54:21;;;;;;;12.67;11.50;;;;;;;;;;4968452;28;20441;-84
2023/04/17 13:56:47;;;;;;;13.30;12.20;;;;;;;;;;4969279;28;20457;-83
2023/04/17 13:59:13;;;;;;;13.73;12.73;;;;;;;;;;4970086;28;20441;-82
2023/04/17 14:01:39;;;;;;;14.77;13.37;;;;;;;;;;4960244;28;20537;-84
2023/04/17 14:04:05;;;;;;;12.63;11.63;;;;;;;;;;4965670;28;21075;-84
2023/04/17 14:06:32;;;;;;;14.30;13.20;;;;;;;;;;4968103;28;20453;-83
2023/04/17 14:08:58;;;;;;;12.43;11.33;;;;;;;;;;4969104;28;20473;-82
2023/04/17 14:11:24;;;;;;;15.70;14.30;;;;;;;;;;4971478;28;20961;-82
2023/04/17 14:13:50;;;;;;;12.60;11.70;;;;;;;;;;4965381;28;21003;-83
2023/04/17 14:16:17;;;;;;;12.17;11.20;;;;;;;;;;4973121;28;20473;-82
2023/04/17 14:18:50;;;;;;;12.03;10.93;;;;;;;;;;4967382;28;20577;-82
2023/04/17 14:21:16;;;;;;;13.50;12.20;;;;;;;;;;4969358;28;20445;-84
2023/04/17 14:23:42;;;;;;;14.07;12.53;;;;;;;;;;4965194;28;20434;-84
2023/04/17 14:26:08;;;;;;;12.17;11.13;;;;;;;;;;4969453;28;20813;-82
2023/04/17 14:28:34;;;;;;;11.77;10.87;;;;;;;;;;4963131;28;20504;-82
2023/04/17 14:31:00;;;;;;;13.37;12.17;;;;;;;;;;4959997;28;20457;-77
2023/04/17 14:33:26;;;;;;;11.60;10.70;;;;;;;;;;4963110;28;20508;-77
2023/04/17 14:35:55;;;;;;;12.37;11.27;;;;;;;;;;4960689;28;20452;-78
2023/04/17 14:38:21;;;;;;;12.60;11.27;;;;;;;;;;4952111;28;20475;-78
2023/04/17 14:40:47;;;;;;;11.53;10.53;;;;;;;;;;4960311;28;20512;-78